Fertile, Iowa
Current Conditions -  °F | °C
As of 9:53 PM on Thursday 18 Dec 2014 (Local Time) from KMCW Reporting Station
Overcast Overcast  
Wind Chill: 15°   Ceiling: 4200
Heat Index: 23°   Visibility: 9mi
Dew Point: 18°   Wind: 7mph
Humidity: 81%   Direction: 180°S
Pressure: 30.26"   Gusts: NA
Location:  43.26°N, 93.42°W
Report Text: KMCW 190353Z AUTO 18006KT 9SM OVC042 M05/M08 A3026 RMK AO2 SLP262 T10501078
Loading
Personal Weather Stations






























Interactive Weather Map New forecast layout! Learn more

10-Day Weather Forecast

Advertisements
Track Severe Weather on mobile